Terminal Aerodrome Forecast
Issued by NWS Sterling, VA

Home | Current Version | Previous Version | Text Only | Print | Product List | Glossary On
Versions: 1 2 3 4 5 6 7 8 9 10 11 12
000
FTUS41 KLWX 202300
TAFCHO
TAF
KCHO 202334Z 2100/2124 20005KT P6SM VCSH OVC035
     FM210800 00000KT P6SM BKN080
     FM211100 VRB03KT P6SM SCT250
     FM211500 28004KT P6SM BKN060=

USA.gov is the U.S. government's official web portal to all federal, state and local government web resources and services.